Mukilteo, Washington
Current Conditions -  °F | °C
As of 7:53 PM on Monday 22 Dec 2014 (Local Time) from KPAE Reporting Station
Overcast Overcast  
Wind Chill: 41°   Ceiling: 11000
Heat Index: 45°   Visibility: 10mi
Dew Point: 38°   Wind: 7mph
Humidity: 76%   Direction: 110°ESE
Pressure: 30.35"   Gusts: NA
Location:  47.9°N, 122.29°W
Report Text: KPAE 230353Z 11006KT 10SM OVC110 07/03 A3035 RMK AO2 SLP282 T00720033
Loading
Personal Weather Stations






























Interactive Weather Map New forecast layout! Learn more

10-Day Weather Forecast

Advertisements
Track Severe Weather on mobile